NCAR-RAP Real-Time Weather Data

Output produced by METARs form (24 January 2022  23:34 UTC)
found at http://weather.rap.ucar.edu/surface/
 
KHTL 242253Z AUTO 32005KT 7SM -SN BKN033 OVC040 M08/M12 A2964 RMK AO2 SNB48 SLP060 P0000 T10781122
KHTL 242153Z AUTO 33005KT 10SM SCT024 BKN032 OVC060 M07/M12 A2961 RMK AO2 SNE2059 SLP049 P0001 T10721122
KHTL 242148Z AUTO 33006KT 10SM SCT024 BKN032 OVC060 M07/M13 A2961 RMK AO2 SNE2059 P0001
KHTL 242129Z AUTO 34005KT 10SM BKN024 OVC060 M07/M12 A2960 RMK AO2 SNE2059 P0001 T10721122
KHTL 242108Z AUTO 33003KT 10SM FEW024 SCT029 OVC065 M07/M12 A2959 RMK AO2 SNE2059 P0000 T10721117
KHTL 242053Z AUTO 32004KT 5SM -SN FEW015 BKN027 OVC065 M07/M11 A2958 RMK AO2 SNB18 SLP039 P0000 60000 T10721111 51007
KHTL 242051Z AUTO 33004KT 4SM -SN SCT015 BKN024 OVC029 M07/M11 A2958 RMK AO2 SNB18 P0000
KHTL 242043Z AUTO 33004KT 2 1/2SM -SN SCT015 BKN024 OVC029 M07/M11 A2958 RMK AO2 VIS 1 1/4V4 SNB18 P0000 T10721111
KHTL 242034Z AUTO 33004KT 1 3/4SM -SN BKN015 BKN024 OVC032 M08/M11 A2958 RMK AO2 SNB18 P0000 T10781111
KHTL 242024Z AUTO 28003KT 2 1/2SM -SN FEW015 BKN025 OVC032 M08/M12 A2957 RMK AO2 SNB18 P0000 T10781117
KHTL 241953Z AUTO 27003KT 10SM FEW031 OVC070 M07/M11 A2957 RMK AO2 SNE09 SLP033 P0000 T10721111
KHTL 241853Z AUTO 00000KT 5SM -SN SCT016 BKN036 OVC065 M07/M11 A2956 RMK AO2 SNE33B50 SLP031 P0000 T10721111
KHTL 241849Z AUTO 00000KT 6SM HZ SCT016 BKN046 OVC065 M07/M11 A2956 RMK AO2 SNE33 P0000
KHTL 241827Z AUTO 00000KT 3SM -SN SCT014 BKN021 OVC028 M07/M11 A2956 RMK AO2 P0000 T10721106
KHTL 241823Z AUTO 00000KT 1 3/4SM -SN SCT014 BKN021 OVC028 M07/M11 A2956 RMK AO2 P0000 T10721106
KHTL 241816Z AUTO 00000KT 1SM -SN SCT014 BKN019 OVC026 M07/M10 A2956 RMK AO2 P0000 T10721100
KHTL 241753Z AUTO 18004KT 1 1/4SM -SN FEW012 BKN027 OVC037 M08/M11 A2956 RMK AO2 SLP033 P0001 60003 T10831111 11083 21111 58014
KHTL 241746Z AUTO 16004KT 1 1/2SM -SN FEW011 BKN027 OVC039 M08/M11 A2957 RMK AO2 P0001 T10831111
KHTL 241741Z AUTO 16004KT 2SM -SN FEW011 BKN029 OVC039 M08/M11 A2957 RMK AO2 P0001 T10831111
KHTL 241735Z AUTO 16004KT 1 3/4SM -SN BR FEW011 BKN034 OVC044 M08/M11 A2957 RMK AO2 P0001 T10831106
KHTL 241727Z AUTO 18004KT 1 3/4SM -SN BR BKN028 OVC037 M08/M10 A2957 RMK AO2 P0001 T10831100
KHTL 241718Z AUTO 17005KT 1 1/4SM -SN BKN020 BKN030 OVC037 M09/M12 A2957 RMK AO2 P0001 T10891117
KHTL 241702Z AUTO 18007KT 1SM -SN VV018 M09/M12 A2958 RMK AO2 P0000 T10891117
KHTL 241653Z AUTO 17007KT 3/4SM -SN BR VV017 M09/M11 A2958 RMK AO2 SLP040 P0001 T10891111
KHTL 241640Z AUTO 16006KT 3/4SM -SN VV018 M09/M12 A2959 RMK AO2 P0001 T10891117
KHTL 241628Z AUTO 16007KT 1SM -SN BKN020 OVC029 M09/M12 A2959 RMK AO2 P0000 T10891117
KHTL 241615Z AUTO 17007KT 3/4SM -SN BKN022 OVC034 M09/M12 A2960 RMK AO2 P0000 T10891117
KHTL 241601Z AUTO 17007KT 1 1/4SM -SN BKN026 OVC033 M09/M12 A2959 RMK AO2 P0000 T10891117
KHTL 241553Z AUTO 16007KT 1 3/4SM -SN BKN028 OVC036 M09/M12 A2959 RMK AO2 SNB04 SLP043 P0001 T10941122
KHTL 241539Z AUTO 17008KT 4SM -SN BKN028 OVC036 M09/M12 A2960 RMK AO2 SNB04 P0000 T10941122
KHTL 241523Z AUTO 16006KT 4SM -SN BKN034 OVC047 M09/M13 A2960 RMK AO2 SNB04 P0000 T10941128
KHTL 241514Z AUTO 16006KT 2SM -SN BKN038 OVC049 M09/M12 A2960 RMK AO2 SNB04 P0000 T10941122
KHTL 241453Z AUTO 14004KT 8SM OVC036 M10/M12 A2961 RMK AO2 SNE48 SLP048 P0000 60000 T11001122 56012
KHTL 241353Z AUTO 16005KT 4SM -SN BR OVC070 M11/M13 A2961 RMK AO2 SNB14 SLP051 P0000 T11061128